Ferme-Neuve, Canada
Current Conditions -  °F | °C
As of 8:00 PM on Tuesday 27 Jan 2015 (Local Time) from CYND Reporting Station
Broken Clouds Broken Clouds  
Wind Chill: -15°   Ceiling: 22000
Heat Index: -11°   Visibility: 15mi
Dew Point: -21°   Wind: 5mph
Humidity: 45%   Direction: 30°NNE
Pressure: 30.08"   Gusts: NA
Location:  46.7°N, 75.45°W
Report Text: CYND 280100Z 03004KT 310V070 15SM BKN220 M11/M21 A3008 RMK CI6 SLP191
Loading
Personal Weather Stations






























Interactive Weather Map New forecast layout! Learn more

10-Day Weather Forecast

Advertisements
Track Severe Weather on mobile